createdAt,value
2023-04-04T00:01:28.403Z,9.9
2023-04-04T00:04:15.948Z,12.4
2023-04-04T00:07:03.509Z,9.9
2023-04-04T00:09:51.047Z,9.2
2023-04-04T00:12:38.701Z,8.2
2023-04-04T00:15:26.801Z,8.8
2023-04-04T00:18:15.330Z,8.1
2023-04-04T00:21:03.107Z,8.1
2023-04-04T00:23:50.705Z,10.9
2023-04-04T00:26:39.164Z,9.6
2023-04-04T00:29:27.432Z,11.7
2023-04-04T00:32:15.020Z,10
2023-04-04T00:35:02.771Z,10.3
2023-04-04T00:37:51.175Z,8.3
2023-04-04T00:40:38.973Z,9.1
2023-04-04T00:43:28.819Z,12.8
2023-04-04T00:46:17.369Z,11
2023-04-04T00:49:06.390Z,8.4
2023-04-04T00:51:54.031Z,10.9
2023-04-04T00:54:42.487Z,13.9
2023-04-04T00:57:30.120Z,9.4
2023-04-04T01:00:19.192Z,9.2
2023-04-04T01:03:07.530Z,9.8
2023-04-04T01:05:57.277Z,10.8
2023-04-04T01:08:46.650Z,14.7
2023-04-04T01:11:36.197Z,12.6
2023-04-04T01:14:23.862Z,11
2023-04-04T01:17:11.572Z,11.5
2023-04-04T01:20:01.293Z,12.7
2023-04-04T01:22:55.249Z,12.8
2023-04-04T01:25:45.022Z,9.9
2023-04-04T01:28:33.721Z,9
2023-04-04T01:31:21.474Z,11.1
2023-04-04T01:34:16.447Z,14.1
2023-04-04T01:37:13.300Z,14
2023-04-04T01:40:10.241Z,12.4
2023-04-04T01:43:03.250Z,14.2
2023-04-04T01:45:52.427Z,15.8
2023-04-04T01:48:40.289Z,12.2
2023-04-04T01:51:27.775Z,10.8
2023-04-04T01:54:16.679Z,9.2
2023-04-04T01:57:04.450Z,14.3
2023-04-04T01:59:52.178Z,10.7
2023-04-04T02:02:39.662Z,8.9
2023-04-04T02:05:27.578Z,10.2
2023-04-04T02:08:15.188Z,9.9
2023-04-04T02:11:03.083Z,8.5
2023-04-04T02:13:51.748Z,12.6
2023-04-04T02:16:39.343Z,9
2023-04-04T02:19:28.498Z,11.3
2023-04-04T02:22:16.744Z,10.6
2023-04-04T02:25:04.372Z,5
2023-04-04T02:27:52.345Z,6.6
2023-04-04T02:30:40.732Z,6
2023-04-04T02:33:28.722Z,8.5
2023-04-04T02:36:16.634Z,5.5
2023-04-04T02:39:04.429Z,5.3
2023-04-04T02:41:51.983Z,8.6
2023-04-04T02:44:39.521Z,6.8
2023-04-04T02:47:27.261Z,5.2
2023-04-04T02:50:14.812Z,7.4
2023-04-04T02:53:03.211Z,7.8
2023-04-04T02:55:53.028Z,7.1
2023-04-04T02:58:41.586Z,6.7
2023-04-04T03:01:30.369Z,6.6
2023-04-04T03:04:18.004Z,8
2023-04-04T03:07:05.846Z,6.1
2023-04-04T03:09:53.530Z,6.5
2023-04-04T03:12:41.770Z,5.3
2023-04-04T03:15:30.750Z,6.6
2023-04-04T03:18:19.252Z,7.8
2023-04-04T03:21:06.737Z,3.7
2023-04-04T03:23:54.873Z,8.1
2023-04-04T03:26:42.456Z,6.5
2023-04-04T03:29:30.038Z,7
2023-04-04T03:32:17.482Z,14.6
2023-04-04T03:35:05.323Z,7.7
2023-04-04T03:37:53.762Z,7
2023-04-04T03:40:42.113Z,10.2
2023-04-04T03:43:29.858Z,6.1
2023-04-04T03:46:17.920Z,6.7
2023-04-04T03:49:05.989Z,6.7
2023-04-04T03:51:53.479Z,8
2023-04-04T03:54:40.942Z,3.9
2023-04-04T03:57:28.654Z,6
2023-04-04T04:00:17.504Z,6.7
2023-04-04T04:03:05.482Z,5.6
2023-04-04T04:05:53.020Z,5.5
2023-04-04T04:08:40.985Z,5.2
2023-04-04T04:11:28.616Z,6.4
2023-04-04T04:14:16.277Z,6.3
2023-04-04T04:17:04.048Z,7.7
2023-04-04T04:19:52.639Z,7.9
2023-04-04T04:22:40.837Z,6.5
2023-04-04T04:25:31.796Z,10.6
2023-04-04T04:28:19.319Z,6.7
2023-04-04T04:31:08.572Z,11.1
2023-04-04T04:33:56.186Z,11.3
2023-04-04T04:36:43.921Z,11.7
2023-04-04T04:39:31.720Z,13.6
2023-04-04T04:42:19.982Z,8.6
2023-04-04T04:45:07.960Z,10.7
2023-04-04T04:47:56.050Z,9.8
2023-04-04T04:50:43.585Z,9.9
2023-04-04T04:53:32.449Z,11.7
2023-04-04T04:56:20.531Z,10.6
2023-04-04T04:59:08.271Z,7.4
2023-04-04T05:01:57.287Z,8.2
2023-04-04T05:04:45.913Z,5.9
2023-04-04T05:07:33.381Z,10.5
2023-04-04T05:10:20.980Z,8.5
2023-04-04T05:13:08.469Z,9.1
2023-04-04T05:15:55.990Z,10.8
2023-04-04T05:18:43.846Z,11.2
2023-04-04T05:21:31.782Z,10.1
2023-04-04T05:24:19.335Z,9.3
2023-04-04T05:27:08.175Z,8.9
2023-04-04T05:29:56.276Z,10.3
2023-04-04T05:32:43.825Z,13.7
2023-04-04T05:35:31.619Z,8.9
2023-04-04T05:38:19.230Z,8.4
2023-04-04T05:41:06.909Z,12.3
2023-04-04T05:43:54.568Z,13.8
2023-04-04T05:46:42.180Z,11.6
2023-04-04T05:49:29.735Z,9
2023-04-04T05:52:17.242Z,9.1
2023-04-04T05:55:04.763Z,9.9
2023-04-04T05:57:53.104Z,8.3
2023-04-04T06:00:41.731Z,10.3
2023-04-04T06:03:29.596Z,7.3
2023-04-04T06:06:17.450Z,10.8
2023-04-04T06:09:07.506Z,9.3
2023-04-04T06:11:56.339Z,7.9
2023-04-04T06:14:44.704Z,11.3
2023-04-04T06:17:32.229Z,8.4
2023-04-04T06:20:19.978Z,13.7
2023-04-04T06:23:08.792Z,10.2
2023-04-04T06:25:56.340Z,11.5
2023-04-04T06:28:45.849Z,10.4
2023-04-04T06:31:34.029Z,10.8
2023-04-04T06:34:21.740Z,9.6
2023-04-04T06:37:09.261Z,11.3
2023-04-04T06:39:56.835Z,12.7
2023-04-04T06:42:44.314Z,11.8
2023-04-04T06:45:35.145Z,10.1
2023-04-04T06:48:22.742Z,8.4
2023-04-04T06:51:10.369Z,7.4
2023-04-04T06:53:57.988Z,8.6
2023-04-04T06:56:47.309Z,6.8
2023-04-04T06:59:34.975Z,10.4
2023-04-04T07:02:23.002Z,13
2023-04-04T07:05:11.258Z,7.2
2023-04-04T07:08:02.610Z,8.7
2023-04-04T07:10:51.318Z,11.2
2023-04-04T07:13:39.052Z,10.5
2023-04-04T07:16:26.734Z,8.4
2023-04-04T07:19:14.375Z,6.5
2023-04-04T07:22:02.227Z,7.3
2023-04-04T07:24:50.967Z,5.8
2023-04-04T07:27:39.137Z,7.1
2023-04-04T07:30:27.128Z,7.3
2023-04-04T07:33:17.460Z,3.8
2023-04-04T07:36:05.844Z,4.5
2023-04-04T07:38:54.406Z,6.9
2023-04-04T07:41:42.591Z,5.5
2023-04-04T07:44:30.169Z,7.1
2023-04-04T07:47:17.986Z,2.8
2023-04-04T07:50:06.266Z,8.8
2023-04-04T07:52:55.268Z,6
2023-04-04T07:55:43.256Z,4.9
2023-04-04T07:58:30.824Z,3.5
2023-04-04T08:01:18.613Z,4.4
2023-04-04T08:04:06.633Z,5.3
2023-04-04T08:06:54.185Z,10.6
2023-04-04T08:09:41.786Z,4.6
2023-04-04T08:12:29.633Z,4.1
2023-04-04T08:15:17.359Z,5.4
2023-04-04T08:18:05.241Z,4.7
2023-04-04T08:20:52.883Z,2.4
2023-04-04T08:23:40.379Z,2.6
2023-04-04T08:26:27.876Z,7.4
2023-04-04T08:29:15.331Z,4.7
2023-04-04T08:32:03.685Z,2.5
2023-04-04T08:34:51.465Z,3.3
2023-04-04T08:37:39.011Z,8.2
2023-04-04T08:40:31.630Z,3.7
2023-04-04T08:43:20.374Z,4.4
2023-04-04T08:46:11.367Z,3.3
2023-04-04T08:49:00.765Z,3.6
2023-04-04T08:51:51.516Z,5.4
2023-04-04T08:54:42.142Z,3.7
2023-04-04T08:57:31.010Z,5.9
2023-04-04T09:00:18.687Z,5
2023-04-04T09:03:07.572Z,4.3
2023-04-04T09:06:02.609Z,3.5
2023-04-04T09:08:51.588Z,4.7
2023-04-04T09:11:39.473Z,5.7
2023-04-04T09:14:30.085Z,5.2
2023-04-04T09:17:19.003Z,5
2023-04-04T09:20:06.810Z,4.3
2023-04-04T09:23:26.800Z,4.2
2023-04-04T09:26:14.405Z,3
2023-04-04T09:29:01.939Z,4.6
2023-04-04T09:31:53.263Z,3.4
2023-04-04T09:34:41.530Z,5.1
2023-04-04T09:37:30.652Z,4.5
2023-04-04T09:40:18.390Z,5.2
2023-04-04T09:43:08.266Z,5.6
2023-04-04T09:45:57.978Z,5.6
2023-04-04T09:48:46.839Z,5.2
2023-04-04T09:51:35.479Z,3.6
2023-04-04T09:54:29.536Z,5.7
2023-04-04T09:57:18.029Z,3.4
2023-04-04T10:00:07.074Z,8.8
2023-04-04T10:02:58.161Z,5.2
2023-04-04T10:05:50.027Z,9.2
2023-04-04T10:08:44.517Z,4.7
2023-04-04T10:11:33.514Z,5.8
2023-04-04T10:14:23.526Z,5.7
2023-04-04T10:17:19.899Z,5.1
2023-04-04T10:20:08.886Z,5
2023-04-04T10:22:57.502Z,3.2
2023-04-04T10:25:46.379Z,4.9
2023-04-04T10:28:34.314Z,4.8
2023-04-04T10:31:22.428Z,6.3
2023-04-04T10:34:11.870Z,3.5
2023-04-04T10:37:05.842Z,7.2
2023-04-04T10:39:57.693Z,4.4
2023-04-04T10:42:53.673Z,4
2023-04-04T10:45:43.787Z,4.1
2023-04-04T10:48:32.180Z,5.2
2023-04-04T10:51:19.870Z,4.1
2023-04-04T10:54:07.739Z,3.4
2023-04-04T10:56:56.925Z,6
2023-04-04T10:59:45.505Z,4.4
2023-04-04T11:02:53.910Z,6.2
2023-04-04T11:05:44.105Z,5.6
2023-04-04T11:08:31.980Z,4.2
2023-04-04T11:11:23.026Z,5.3
2023-04-04T11:14:12.783Z,4.8
2023-04-04T11:17:01.304Z,6.2
2023-04-04T11:19:51.510Z,6.1
2023-04-04T11:22:44.492Z,5.4
2023-04-04T11:25:35.131Z,5.2
2023-04-04T11:28:26.532Z,4.1
2023-04-04T11:31:29.993Z,5.5
2023-04-04T11:34:20.276Z,6.4
2023-04-04T11:37:16.609Z,5
2023-04-04T11:40:05.054Z,3.7
2023-04-04T11:42:58.474Z,5.7
2023-04-04T11:45:52.067Z,5.4
2023-04-04T11:48:50.892Z,4.3
2023-04-04T11:51:39.317Z,3.7
2023-04-04T11:54:27.179Z,5.8
2023-04-04T11:57:16.736Z,3.8
2023-04-04T12:00:06.859Z,3.3
2023-04-04T12:03:00.533Z,7.5
2023-04-04T12:05:51.551Z,6.4
2023-04-04T12:08:39.407Z,6.4
2023-04-04T12:11:27.451Z,8.2
2023-04-04T12:14:16.771Z,3.9
2023-04-04T12:17:05.666Z,4.9
2023-04-04T12:19:53.548Z,7.4
2023-04-04T12:22:41.417Z,6
2023-04-04T12:25:29.303Z,4.2
2023-04-04T12:28:18.658Z,4.2
2023-04-04T12:31:07.111Z,4.7
2023-04-04T12:33:56.410Z,4.4
2023-04-04T12:36:44.865Z,7.6
2023-04-04T12:39:33.281Z,3.9
2023-04-04T12:42:25.301Z,3.5
2023-04-04T12:45:12.864Z,4.7
2023-04-04T12:48:01.555Z,4.9
2023-04-04T12:50:58.511Z,5
2023-04-04T12:53:49.519Z,4
2023-04-04T12:56:38.073Z,3.8
2023-04-04T12:59:26.471Z,6.7
2023-04-04T13:02:15.426Z,5.2
2023-04-04T13:05:06.047Z,5.4
2023-04-04T13:07:55.798Z,5.2
2023-04-04T13:10:52.059Z,4.3
2023-04-04T13:13:48.810Z,6.3
2023-04-04T13:16:47.331Z,4.9
2023-04-04T13:19:49.294Z,7.5
2023-04-04T13:22:37.306Z,4.7
2023-04-04T13:25:26.821Z,4.5
2023-04-04T13:28:14.620Z,4.4
2023-04-04T13:31:02.760Z,5.3
2023-04-04T13:33:52.815Z,5.6
2023-04-04T13:36:40.312Z,9.7
2023-04-04T13:39:28.858Z,6.2
2023-04-04T13:42:17.697Z,6.8
2023-04-04T13:45:07.912Z,4.9
2023-04-04T13:47:56.064Z,4.6
2023-04-04T13:50:43.728Z,7
2023-04-04T13:53:35.817Z,3.9
2023-04-04T13:56:23.665Z,5.2
2023-04-04T13:59:12.266Z,5.6
2023-04-04T14:02:00.871Z,4.4
2023-04-04T14:04:49.755Z,5
2023-04-04T14:07:37.362Z,3.8
2023-04-04T14:10:26.568Z,4
2023-04-04T14:13:14.238Z,4.8
2023-04-04T14:16:09.338Z,5.2
2023-04-04T14:18:57.014Z,6.1
2023-04-04T14:21:44.586Z,4.1
2023-04-04T14:24:43.600Z,5.6
2023-04-04T14:27:31.088Z,5
2023-04-04T14:30:18.750Z,5.4
2023-04-04T14:33:17.278Z,7.4
2023-04-04T14:36:05.566Z,5.1
2023-04-04T14:38:53.296Z,6.3
2023-04-04T14:41:41.424Z,3.9
2023-04-04T14:44:30.099Z,6.2
2023-04-04T14:47:19.382Z,5.6
2023-04-04T14:50:07.494Z,5.6
2023-04-04T14:52:57.327Z,6.4
2023-04-04T14:55:45.140Z,5.3
2023-04-04T14:58:32.724Z,5
2023-04-04T15:01:20.654Z,6.9
2023-04-04T15:04:08.339Z,5.8
2023-04-04T15:06:56.439Z,8.6
2023-04-04T15:09:47.718Z,4.9
2023-04-04T15:12:35.331Z,4.5
2023-04-04T15:15:23.784Z,5.9
2023-04-04T15:18:13.505Z,5.1
2023-04-04T15:21:01.323Z,6
2023-04-04T15:23:50.702Z,5.4
2023-04-04T15:26:38.502Z,7.4
2023-04-04T15:29:26.252Z,10.4
2023-04-04T15:32:14.000Z,5.3
2023-04-04T15:35:02.085Z,5
2023-04-04T15:37:51.954Z,6.1
2023-04-04T15:40:39.792Z,3.8
2023-04-04T15:43:27.774Z,4.7
2023-04-04T15:46:16.575Z,5.1
2023-04-04T15:49:04.546Z,3.6
2023-04-04T15:51:52.723Z,2.8
2023-04-04T15:54:40.686Z,13.2
2023-04-04T15:57:28.283Z,11.5
2023-04-04T16:00:16.653Z,8
2023-04-04T16:03:04.652Z,4
2023-04-04T16:05:52.387Z,4.6
2023-04-04T16:08:40.028Z,5.6
2023-04-04T16:11:28.394Z,6.7
2023-04-04T16:14:16.084Z,8.9
2023-04-04T16:17:03.986Z,5.2
2023-04-04T16:19:52.049Z,3.7
2023-04-04T16:22:40.179Z,5.6
2023-04-04T16:25:27.957Z,9.1
2023-04-04T16:28:15.751Z,11.4
2023-04-04T16:31:03.853Z,7.4
2023-04-04T16:33:53.084Z,7.4
2023-04-04T16:36:40.892Z,7
2023-04-04T16:39:28.724Z,5.7
2023-04-04T16:42:16.565Z,6.6
2023-04-04T16:45:04.885Z,6.9
2023-04-04T16:47:54.067Z,5.1
2023-04-04T16:50:42.116Z,5.9
2023-04-04T16:53:30.607Z,7
2023-04-04T16:56:18.330Z,4.5
2023-04-04T16:59:06.217Z,3.9
2023-04-04T17:01:54.174Z,7
2023-04-04T17:04:42.196Z,4.1
2023-04-04T17:07:30.359Z,6.3
2023-04-04T17:10:18.066Z,7.7
2023-04-04T17:13:05.960Z,5.5
2023-04-04T17:15:54.088Z,6.7
2023-04-04T17:18:42.339Z,5.3
2023-04-04T17:21:30.117Z,7.7
2023-04-04T17:24:18.084Z,10.7
2023-04-04T17:27:07.845Z,11.7
2023-04-04T17:29:55.720Z,12.6
2023-04-04T17:32:43.680Z,14.3
2023-04-04T17:35:33.496Z,13.6
2023-04-04T17:38:21.477Z,15
2023-04-04T17:41:09.395Z,14
2023-04-04T17:43:58.595Z,19.3
2023-04-04T17:46:47.627Z,18.8
2023-04-04T17:49:35.468Z,24.5
2023-04-04T17:52:24.502Z,18.6
2023-04-04T17:55:12.600Z,15.9
2023-04-04T17:58:02.840Z,10.3
2023-04-04T18:00:51.814Z,15.7
2023-04-04T18:03:42.193Z,14.1
2023-04-04T18:06:30.317Z,20.9
2023-04-04T18:09:18.065Z,28.4
2023-04-04T18:12:06.191Z,25.4
2023-04-04T18:14:55.402Z,23.5
2023-04-04T18:17:43.426Z,22.4
2023-04-04T18:20:34.828Z,20.8
2023-04-04T18:23:23.575Z,18.6
2023-04-04T18:26:12.139Z,16
2023-04-04T18:29:00.341Z,14.9
2023-04-04T18:31:49.642Z,16.2
2023-04-04T18:34:37.888Z,21.9
2023-04-04T18:37:25.677Z,26.1
2023-04-04T18:40:13.400Z,28.1
2023-04-04T18:43:02.643Z,35.6
2023-04-04T18:45:51.741Z,37.8
2023-04-04T18:48:39.824Z,33.4
2023-04-04T18:51:28.160Z,34.7
2023-04-04T18:54:16.200Z,32.2
2023-04-04T18:57:04.190Z,29
2023-04-04T18:59:52.712Z,31.5
2023-04-04T19:02:40.611Z,27.2
2023-04-04T19:05:28.431Z,25.5
2023-04-04T19:08:17.857Z,24.8
2023-04-04T19:11:05.350Z,26.4
2023-04-04T19:13:53.508Z,28.8
2023-04-04T19:16:41.207Z,25.9
2023-04-04T19:19:28.876Z,28.4
2023-04-04T19:22:17.472Z,31.1
2023-04-04T19:25:05.104Z,29.2
2023-04-04T19:27:53.594Z,30.7
2023-04-04T19:30:41.325Z,34.2
2023-04-04T19:33:31.798Z,40.5
2023-04-04T19:36:19.542Z,51.7
2023-04-04T19:39:08.427Z,44
2023-04-04T19:41:56.141Z,40.3
2023-04-04T19:44:46.605Z,41.9
2023-04-04T19:47:34.272Z,44.6
2023-04-04T19:50:23.564Z,41.2
2023-04-04T19:53:20.475Z,42.2
2023-04-04T19:56:12.286Z,38.9
2023-04-04T19:59:01.725Z,40.6
2023-04-04T20:02:00.118Z,40.6
2023-04-04T20:04:52.022Z,37.7
2023-04-04T20:07:39.837Z,41
2023-04-04T20:10:27.561Z,36.1
2023-04-04T20:13:23.388Z,45.6
2023-04-04T20:16:11.038Z,47.3
2023-04-04T20:19:00.561Z,46.1
2023-04-04T20:21:51.195Z,34.6
2023-04-04T20:24:38.993Z,38.5
2023-04-04T20:27:28.051Z,26.3
2023-04-04T20:30:17.769Z,29.2
2023-04-04T20:33:05.675Z,32.1
2023-04-04T20:36:16.019Z,31.5
2023-04-04T20:39:17.572Z,32.1
2023-04-04T20:42:23.487Z,31.9
2023-04-04T20:45:22.552Z,27
2023-04-04T20:48:27.170Z,32.6
2023-04-04T20:51:24.070Z,24.6
2023-04-04T20:54:14.688Z,29.5
2023-04-04T20:57:02.800Z,30.1
2023-04-04T20:59:52.030Z,34.7
2023-04-04T21:02:39.537Z,30.9
2023-04-04T21:05:27.397Z,29.8
2023-04-04T21:08:17.378Z,33.8
2023-04-04T21:11:22.816Z,53.8
2023-04-04T21:14:13.510Z,36.8
2023-04-04T21:17:07.118Z,36.2
2023-04-04T21:19:56.823Z,36.4
2023-04-04T21:22:44.369Z,44.6
2023-04-04T21:25:35.165Z,48.5
2023-04-04T21:28:34.434Z,44.6
2023-04-04T21:31:24.247Z,43.9
2023-04-04T21:34:20.776Z,42.8
2023-04-04T21:37:10.699Z,42.1
2023-04-04T21:40:01.024Z,45.1
2023-04-04T21:42:52.831Z,40
2023-04-04T21:45:40.527Z,48.4
2023-04-04T21:48:28.863Z,46.3
2023-04-04T21:51:16.453Z,45.5
2023-04-04T21:54:04.598Z,41.8
2023-04-04T21:56:52.094Z,43.7
2023-04-04T21:59:39.782Z,40.6
2023-04-04T22:02:27.307Z,39.9
2023-04-04T22:05:14.932Z,46.2
2023-04-04T22:08:02.740Z,45.9
2023-04-04T22:10:51.276Z,40.9
2023-04-04T22:13:38.986Z,39.8
2023-04-04T22:16:31.570Z,43.7
2023-04-04T22:19:23.326Z,49.4
2023-04-04T22:22:10.784Z,48.9
2023-04-04T22:24:58.276Z,57.3
2023-04-04T22:27:50.452Z,58.1
2023-04-04T22:30:38.560Z,51.3
2023-04-04T22:33:26.531Z,52.3
2023-04-04T22:36:14.909Z,53.1
2023-04-04T22:39:03.389Z,48.6
2023-04-04T22:41:51.967Z,50.4
2023-04-04T22:44:39.749Z,51.1
2023-04-04T22:47:27.304Z,42.4
2023-04-04T22:50:15.016Z,47.2
2023-04-04T22:53:04.202Z,47.3
2023-04-04T22:55:57.302Z,47.6
2023-04-04T22:58:46.124Z,41.8
2023-04-04T23:01:33.725Z,41
2023-04-04T23:04:21.314Z,39.5
2023-04-04T23:07:08.898Z,39.5
2023-04-04T23:09:56.619Z,37.7
2023-04-04T23:12:44.108Z,38.7
2023-04-04T23:15:32.380Z,38.7
2023-04-04T23:18:22.396Z,45.1
2023-04-04T23:21:11.858Z,35.7
2023-04-04T23:23:59.577Z,38.9
2023-04-04T23:26:48.537Z,36.8
2023-04-04T23:29:36.149Z,40
2023-04-04T23:32:23.636Z,34.7
2023-04-04T23:35:12.175Z,39.6
2023-04-04T23:38:00.765Z,41
2023-04-04T23:40:49.475Z,47.5
2023-04-04T23:43:38.210Z,39.1
2023-04-04T23:46:27.445Z,35.4
2023-04-04T23:49:17.029Z,38
2023-04-04T23:52:04.785Z,39.4
2023-04-04T23:54:52.390Z,37.5
2023-04-04T23:57:39.990Z,39.5
